sensor_id;sensor_type;location;lat;lon;timestamp;temperature;humidity
46898;DHT22;32646;50.958;6.258;2023-05-07T00:00:12;13.50;99.90
46898;DHT22;32646;50.958;6.258;2023-05-07T00:02:39;13.50;99.90
46898;DHT22;32646;50.958;6.258;2023-05-07T00:05:06;13.40;99.90
46898;DHT22;32646;50.958;6.258;2023-05-07T00:07:33;13.40;99.90
46898;DHT22;32646;50.958;6.258;2023-05-07T00:09:59;13.40;99.90
46898;DHT22;32646;50.958;6.258;2023-05-07T00:12:27;13.30;99.90
46898;DHT22;32646;50.958;6.258;2023-05-07T00:14:54;13.30;99.90
46898;DHT22;32646;50.958;6.258;2023-05-07T00:17:20;13.30;99.90
46898;DHT22;32646;50.958;6.258;2023-05-07T00:19:47;13.30;99.90
46898;DHT22;32646;50.958;6.258;2023-05-07T00:22:13;13.30;99.90
46898;DHT22;32646;50.958;6.258;2023-05-07T00:24:40;13.20;99.90
46898;DHT22;32646;50.958;6.258;2023-05-07T00:27:06;13.10;99.90
46898;DHT22;32646;50.958;6.258;2023-05-07T00:29:33;13.00;99.90
46898;DHT22;32646;50.958;6.258;2023-05-07T00:31:59;13.00;99.90
46898;DHT22;32646;50.958;6.258;2023-05-07T00:34:26;12.90;99.90
46898;DHT22;32646;50.958;6.258;2023-05-07T00:36:53;13.00;99.90
46898;DHT22;32646;50.958;6.258;2023-05-07T00:39:19;13.00;99.90
46898;DHT22;32646;50.958;6.258;2023-05-07T00:41:46;13.00;99.90
46898;DHT22;32646;50.958;6.258;2023-05-07T00:44:12;13.10;99.90
46898;DHT22;32646;50.958;6.258;2023-05-07T00:46:39;13.10;99.90
46898;DHT22;32646;50.958;6.258;2023-05-07T00:49:06;13.10;99.90
46898;DHT22;32646;50.958;6.258;2023-05-07T00:51:33;13.00;99.90
46898;DHT22;32646;50.958;6.258;2023-05-07T00:54:02;13.00;99.90
46898;DHT22;32646;50.958;6.258;2023-05-07T00:56:28;12.90;99.90
46898;DHT22;32646;50.958;6.258;2023-05-07T00:58:55;12.90;99.90
46898;DHT22;32646;50.958;6.258;2023-05-07T01:01:22;12.90;99.90
46898;DHT22;32646;50.958;6.258;2023-05-07T01:03:48;12.90;99.90
46898;DHT22;32646;50.958;6.258;2023-05-07T01:06:16;12.80;99.90
46898;DHT22;32646;50.958;6.258;2023-05-07T01:08:45;12.90;99.90
46898;DHT22;32646;50.958;6.258;2023-05-07T01:11:12;12.90;99.90
46898;DHT22;32646;50.958;6.258;2023-05-07T01:13:39;12.80;99.90
46898;DHT22;32646;50.958;6.258;2023-05-07T01:16:06;12.80;99.90
46898;DHT22;32646;50.958;6.258;2023-05-07T01:18:34;12.70;99.90
46898;DHT22;32646;50.958;6.258;2023-05-07T01:21:01;12.70;99.90
46898;DHT22;32646;50.958;6.258;2023-05-07T01:23:30;12.70;99.90
46898;DHT22;32646;50.958;6.258;2023-05-07T01:25:57;12.70;99.90
46898;DHT22;32646;50.958;6.258;2023-05-07T01:28:23;12.70;99.90
46898;DHT22;32646;50.958;6.258;2023-05-07T01:30:54;12.80;99.90
46898;DHT22;32646;50.958;6.258;2023-05-07T01:33:21;12.70;99.90
46898;DHT22;32646;50.958;6.258;2023-05-07T01:35:51;12.80;99.90
46898;DHT22;32646;50.958;6.258;2023-05-07T01:38:21;12.70;99.90
46898;DHT22;32646;50.958;6.258;2023-05-07T01:40:48;12.70;99.90
46898;DHT22;32646;50.958;6.258;2023-05-07T01:43:14;12.70;99.90
46898;DHT22;32646;50.958;6.258;2023-05-07T01:45:41;12.70;99.90
46898;DHT22;32646;50.958;6.258;2023-05-07T01:48:10;12.60;99.90
46898;DHT22;32646;50.958;6.258;2023-05-07T01:50:37;12.70;99.90
46898;DHT22;32646;50.958;6.258;2023-05-07T01:53:04;12.70;99.90
46898;DHT22;32646;50.958;6.258;2023-05-07T01:55:31;12.70;99.90
46898;DHT22;32646;50.958;6.258;2023-05-07T01:57:57;12.60;99.90
46898;DHT22;32646;50.958;6.258;2023-05-07T02:00:24;12.50;99.90
46898;DHT22;32646;50.958;6.258;2023-05-07T02:02:50;12.50;99.90
46898;DHT22;32646;50.958;6.258;2023-05-07T02:05:17;12.50;99.90
46898;DHT22;32646;50.958;6.258;2023-05-07T02:07:43;12.40;99.90
46898;DHT22;32646;50.958;6.258;2023-05-07T02:10:10;12.30;99.90
46898;DHT22;32646;50.958;6.258;2023-05-07T02:12:37;12.20;99.90
46898;DHT22;32646;50.958;6.258;2023-05-07T02:15:04;12.10;99.90
46898;DHT22;32646;50.958;6.258;2023-05-07T02:17:30;12.10;99.90
46898;DHT22;32646;50.958;6.258;2023-05-07T02:19:57;11.90;99.90
46898;DHT22;32646;50.958;6.258;2023-05-07T02:22:24;11.90;99.90
46898;DHT22;32646;50.958;6.258;2023-05-07T02:24:50;11.90;99.90
46898;DHT22;32646;50.958;6.258;2023-05-07T02:27:17;11.80;99.90
46898;DHT22;32646;50.958;6.258;2023-05-07T02:29:43;11.80;99.90
46898;DHT22;32646;50.958;6.258;2023-05-07T02:32:10;11.70;99.90
46898;DHT22;32646;50.958;6.258;2023-05-07T02:34:37;11.60;99.90
46898;DHT22;32646;50.958;6.258;2023-05-07T02:37:03;11.60;99.90
46898;DHT22;32646;50.958;6.258;2023-05-07T02:39:30;11.60;99.90
46898;DHT22;32646;50.958;6.258;2023-05-07T02:41:56;11.70;99.90
46898;DHT22;32646;50.958;6.258;2023-05-07T02:44:23;11.70;99.90
46898;DHT22;32646;50.958;6.258;2023-05-07T02:46:49;11.70;99.90
46898;DHT22;32646;50.958;6.258;2023-05-07T02:49:16;11.70;99.90
46898;DHT22;32646;50.958;6.258;2023-05-07T02:51:42;11.60;99.90
46898;DHT22;32646;50.958;6.258;2023-05-07T02:54:09;11.60;99.90
46898;DHT22;32646;50.958;6.258;2023-05-07T02:56:35;11.60;99.90
46898;DHT22;32646;50.958;6.258;2023-05-07T02:59:02;11.70;99.90
46898;DHT22;32646;50.958;6.258;2023-05-07T03:01:28;11.60;99.90
46898;DHT22;32646;50.958;6.258;2023-05-07T03:03:55;11.60;99.90
46898;DHT22;32646;50.958;6.258;2023-05-07T03:06:22;11.70;99.90
46898;DHT22;32646;50.958;6.258;2023-05-07T03:08:48;11.70;99.90
46898;DHT22;32646;50.958;6.258;2023-05-07T03:11:15;11.80;99.90
46898;DHT22;32646;50.958;6.258;2023-05-07T03:13:41;11.70;99.90
46898;DHT22;32646;50.958;6.258;2023-05-07T03:16:08;11.80;99.90
46898;DHT22;32646;50.958;6.258;2023-05-07T03:18:34;11.90;99.90
46898;DHT22;32646;50.958;6.258;2023-05-07T03:21:01;11.90;99.90
46898;DHT22;32646;50.958;6.258;2023-05-07T03:23:28;11.90;99.90
46898;DHT22;32646;50.958;6.258;2023-05-07T03:25:54;11.90;99.90
46898;DHT22;32646;50.958;6.258;2023-05-07T03:28:21;11.90;99.90
46898;DHT22;32646;50.958;6.258;2023-05-07T03:30:47;11.90;99.90
46898;DHT22;32646;50.958;6.258;2023-05-07T03:33:14;11.80;99.90
46898;DHT22;32646;50.958;6.258;2023-05-07T03:35:40;11.80;99.90
46898;DHT22;32646;50.958;6.258;2023-05-07T03:38:07;11.70;99.90
46898;DHT22;32646;50.958;6.258;2023-05-07T03:40:33;11.80;99.90
46898;DHT22;32646;50.958;6.258;2023-05-07T03:43:00;11.70;99.90
46898;DHT22;32646;50.958;6.258;2023-05-07T03:45:27;11.70;99.90
46898;DHT22;32646;50.958;6.258;2023-05-07T03:47:53;11.70;99.90
46898;DHT22;32646;50.958;6.258;2023-05-07T03:50:20;11.60;99.90
46898;DHT22;32646;50.958;6.258;2023-05-07T03:52:46;11.60;99.90
46898;DHT22;32646;50.958;6.258;2023-05-07T03:55:13;11.70;99.90
46898;DHT22;32646;50.958;6.258;2023-05-07T03:57:39;11.70;99.90
46898;DHT22;32646;50.958;6.258;2023-05-07T04:00:06;11.70;99.90
46898;DHT22;32646;50.958;6.258;2023-05-07T04:02:33;11.70;99.90
46898;DHT22;32646;50.958;6.258;2023-05-07T04:05:00;11.80;99.90
46898;DHT22;32646;50.958;6.258;2023-05-07T04:07:26;11.70;99.90
46898;DHT22;32646;50.958;6.258;2023-05-07T04:09:53;11.90;99.90
46898;DHT22;32646;50.958;6.258;2023-05-07T04:12:19;11.90;99.90
46898;DHT22;32646;50.958;6.258;2023-05-07T04:14:46;11.90;99.90
46898;DHT22;32646;50.958;6.258;2023-05-07T04:17:13;11.90;99.90
46898;DHT22;32646;50.958;6.258;2023-05-07T04:19:39;11.90;99.90
46898;DHT22;32646;50.958;6.258;2023-05-07T04:22:06;11.90;99.90
46898;DHT22;32646;50.958;6.258;2023-05-07T04:24:32;11.80;99.90
46898;DHT22;32646;50.958;6.258;2023-05-07T04:26:59;11.80;99.90
46898;DHT22;32646;50.958;6.258;2023-05-07T04:29:25;11.90;99.90
46898;DHT22;32646;50.958;6.258;2023-05-07T04:31:52;12.00;99.90
46898;DHT22;32646;50.958;6.258;2023-05-07T04:34:19;12.00;99.90
46898;DHT22;32646;50.958;6.258;2023-05-07T04:36:45;12.00;99.90
46898;DHT22;32646;50.958;6.258;2023-05-07T04:39:12;12.00;99.90
46898;DHT22;32646;50.958;6.258;2023-05-07T04:41:38;12.10;99.90
46898;DHT22;32646;50.958;6.258;2023-05-07T04:44:05;12.10;99.90
46898;DHT22;32646;50.958;6.258;2023-05-07T04:46:31;12.10;99.90
46898;DHT22;32646;50.958;6.258;2023-05-07T04:48:58;12.20;99.90
46898;DHT22;32646;50.958;6.258;2023-05-07T04:51:24;12.10;99.90
46898;DHT22;32646;50.958;6.258;2023-05-07T04:53:51;12.10;99.90
46898;DHT22;32646;50.958;6.258;2023-05-07T04:56:17;12.20;99.90
46898;DHT22;32646;50.958;6.258;2023-05-07T04:58:44;12.20;99.90
46898;DHT22;32646;50.958;6.258;2023-05-07T05:01:11;12.30;99.90
46898;DHT22;32646;50.958;6.258;2023-05-07T05:03:37;12.30;99.90
46898;DHT22;32646;50.958;6.258;2023-05-07T05:06:04;12.30;99.90
46898;DHT22;32646;50.958;6.258;2023-05-07T05:08:31;12.30;99.90
46898;DHT22;32646;50.958;6.258;2023-05-07T05:10:57;12.40;99.90
46898;DHT22;32646;50.958;6.258;2023-05-07T05:13:24;12.40;99.90
46898;DHT22;32646;50.958;6.258;2023-05-07T05:15:50;12.40;99.90
46898;DHT22;32646;50.958;6.258;2023-05-07T05:18:17;12.50;99.90
46898;DHT22;32646;50.958;6.258;2023-05-07T05:20:43;12.50;99.90
46898;DHT22;32646;50.958;6.258;2023-05-07T05:23:10;12.60;99.90
46898;DHT22;32646;50.958;6.258;2023-05-07T05:25:36;12.60;99.90
46898;DHT22;32646;50.958;6.258;2023-05-07T05:28:03;12.70;99.90
46898;DHT22;32646;50.958;6.258;2023-05-07T05:30:29;12.90;99.90
46898;DHT22;32646;50.958;6.258;2023-05-07T05:32:56;13.00;99.90
46898;DHT22;32646;50.958;6.258;2023-05-07T05:35:23;13.20;99.90
46898;DHT22;32646;50.958;6.258;2023-05-07T05:37:49;13.30;99.90
46898;DHT22;32646;50.958;6.258;2023-05-07T05:40:16;13.50;99.90
46898;DHT22;32646;50.958;6.258;2023-05-07T05:42:42;13.60;99.90
46898;DHT22;32646;50.958;6.258;2023-05-07T05:45:09;13.80;99.90
46898;DHT22;32646;50.958;6.258;2023-05-07T05:47:36;13.90;99.90
46898;DHT22;32646;50.958;6.258;2023-05-07T05:50:04;14.00;99.90
46898;DHT22;32646;50.958;6.258;2023-05-07T05:52:30;14.10;99.90
46898;DHT22;32646;50.958;6.258;2023-05-07T05:54:57;14.20;99.90
46898;DHT22;32646;50.958;6.258;2023-05-07T05:57:24;14.40;99.90
46898;DHT22;32646;50.958;6.258;2023-05-07T05:59:54;14.40;99.90
46898;DHT22;32646;50.958;6.258;2023-05-07T06:02:20;14.50;99.90
46898;DHT22;32646;50.958;6.258;2023-05-07T06:04:47;14.60;99.90
46898;DHT22;32646;50.958;6.258;2023-05-07T06:07:14;14.70;99.90
46898;DHT22;32646;50.958;6.258;2023-05-07T06:09:40;14.90;99.90
46898;DHT22;32646;50.958;6.258;2023-05-07T06:12:07;15.00;99.90
46898;DHT22;32646;50.958;6.258;2023-05-07T06:14:36;15.00;99.90
46898;DHT22;32646;50.958;6.258;2023-05-07T06:17:03;15.10;99.90
46898;DHT22;32646;50.958;6.258;2023-05-07T06:19:29;15.30;99.90
46898;DHT22;32646;50.958;6.258;2023-05-07T06:21:56;15.30;99.90
46898;DHT22;32646;50.958;6.258;2023-05-07T06:24:23;15.30;99.90
46898;DHT22;32646;50.958;6.258;2023-05-07T06:26:50;15.30;99.90
46898;DHT22;32646;50.958;6.258;2023-05-07T06:29:16;15.30;99.90
46898;DHT22;32646;50.958;6.258;2023-05-07T06:31:43;15.40;99.90
46898;DHT22;32646;50.958;6.258;2023-05-07T06:34:10;15.50;99.90
46898;DHT22;32646;50.958;6.258;2023-05-07T06:36:36;15.50;99.90
46898;DHT22;32646;50.958;6.258;2023-05-07T06:39:03;15.70;99.90
46898;DHT22;32646;50.958;6.258;2023-05-07T06:41:29;15.70;99.90
46898;DHT22;32646;50.958;6.258;2023-05-07T06:43:56;15.70;99.90
46898;DHT22;32646;50.958;6.258;2023-05-07T06:46:22;15.70;99.90
46898;DHT22;32646;50.958;6.258;2023-05-07T06:48:49;15.80;99.90
46898;DHT22;32646;50.958;6.258;2023-05-07T06:51:15;15.80;99.90
46898;DHT22;32646;50.958;6.258;2023-05-07T06:53:42;16.00;99.90
46898;DHT22;32646;50.958;6.258;2023-05-07T06:56:08;16.20;99.90
46898;DHT22;32646;50.958;6.258;2023-05-07T06:58:35;16.40;99.90
46898;DHT22;32646;50.958;6.258;2023-05-07T07:01:01;16.40;99.90
46898;DHT22;32646;50.958;6.258;2023-05-07T07:03:28;16.50;99.90
46898;DHT22;32646;50.958;6.258;2023-05-07T07:05:55;16.40;99.90
46898;DHT22;32646;50.958;6.258;2023-05-07T07:08:22;16.50;99.90
46898;DHT22;32646;50.958;6.258;2023-05-07T07:10:49;16.60;99.90
46898;DHT22;32646;50.958;6.258;2023-05-07T07:13:15;16.70;99.90
46898;DHT22;32646;50.958;6.258;2023-05-07T07:15:43;16.90;99.90
46898;DHT22;32646;50.958;6.258;2023-05-07T07:18:09;16.90;99.90
46898;DHT22;32646;50.958;6.258;2023-05-07T07:20:36;17.10;99.90
46898;DHT22;32646;50.958;6.258;2023-05-07T07:23:03;16.90;99.90
46898;DHT22;32646;50.958;6.258;2023-05-07T07:25:29;17.10;99.90
46898;DHT22;32646;50.958;6.258;2023-05-07T07:27:56;17.10;99.90
46898;DHT22;32646;50.958;6.258;2023-05-07T07:30:23;17.30;99.90
46898;DHT22;32646;50.958;6.258;2023-05-07T07:32:49;17.40;99.90
46898;DHT22;32646;50.958;6.258;2023-05-07T07:35:16;17.50;99.90
46898;DHT22;32646;50.958;6.258;2023-05-07T07:37:43;17.60;99.90
46898;DHT22;32646;50.958;6.258;2023-05-07T07:40:10;17.50;99.90
46898;DHT22;32646;50.958;6.258;2023-05-07T07:42:37;17.60;99.90
46898;DHT22;32646;50.958;6.258;2023-05-07T07:45:04;17.70;99.90
46898;DHT22;32646;50.958;6.258;2023-05-07T07:47:31;17.70;99.90
46898;DHT22;32646;50.958;6.258;2023-05-07T07:49:58;18.00;99.90
46898;DHT22;32646;50.958;6.258;2023-05-07T07:52:24;18.10;99.90
46898;DHT22;32646;50.958;6.258;2023-05-07T07:54:51;17.90;99.90
46898;DHT22;32646;50.958;6.258;2023-05-07T07:57:17;17.80;99.90
46898;DHT22;32646;50.958;6.258;2023-05-07T07:59:44;17.80;99.90
46898;DHT22;32646;50.958;6.258;2023-05-07T08:02:11;17.80;99.90
46898;DHT22;32646;50.958;6.258;2023-05-07T08:04:39;17.80;99.90
46898;DHT22;32646;50.958;6.258;2023-05-07T08:07:06;17.80;99.90
46898;DHT22;32646;50.958;6.258;2023-05-07T08:09:33;17.90;99.90
46898;DHT22;32646;50.958;6.258;2023-05-07T08:12:00;18.10;99.90
46898;DHT22;32646;50.958;6.258;2023-05-07T08:14:26;18.20;99.90
46898;DHT22;32646;50.958;6.258;2023-05-07T08:16:53;18.50;99.90
46898;DHT22;32646;50.958;6.258;2023-05-07T08:19:20;18.40;99.90
46898;DHT22;32646;50.958;6.258;2023-05-07T08:21:47;18.40;99.90
46898;DHT22;32646;50.958;6.258;2023-05-07T08:24:14;18.40;99.90
46898;DHT22;32646;50.958;6.258;2023-05-07T08:26:41;18.70;99.90
46898;DHT22;32646;50.958;6.258;2023-05-07T08:29:08;18.70;99.90
46898;DHT22;32646;50.958;6.258;2023-05-07T08:31:34;19.10;99.90
46898;DHT22;32646;50.958;6.258;2023-05-07T08:34:02;18.90;99.90
46898;DHT22;32646;50.958;6.258;2023-05-07T08:36:35;19.00;99.90
46898;DHT22;32646;50.958;6.258;2023-05-07T08:39:01;18.90;99.90
46898;DHT22;32646;50.958;6.258;2023-05-07T08:41:29;19.00;99.90
46898;DHT22;32646;50.958;6.258;2023-05-07T08:43:58;19.30;99.90
46898;DHT22;32646;50.958;6.258;2023-05-07T08:46:25;19.50;99.90
46898;DHT22;32646;50.958;6.258;2023-05-07T08:48:55;20.40;99.90
46898;DHT22;32646;50.958;6.258;2023-05-07T08:51:22;20.50;99.90
46898;DHT22;32646;50.958;6.258;2023-05-07T08:53:49;20.40;99.90
46898;DHT22;32646;50.958;6.258;2023-05-07T08:56:16;20.80;99.90
46898;DHT22;32646;50.958;6.258;2023-05-07T08:58:45;20.90;99.90
46898;DHT22;32646;50.958;6.258;2023-05-07T09:01:16;21.30;99.90
46898;DHT22;32646;50.958;6.258;2023-05-07T09:03:46;21.90;99.30
46898;DHT22;32646;50.958;6.258;2023-05-07T09:06:13;21.70;99.60
46898;DHT22;32646;50.958;6.258;2023-05-07T09:08:40;22.20;97.50
46898;DHT22;32646;50.958;6.258;2023-05-07T09:11:06;23.00;91.30
46898;DHT22;32646;50.958;6.258;2023-05-07T09:13:33;23.50;92.40
46898;DHT22;32646;50.958;6.258;2023-05-07T09:16:10;23.10;92.00
46898;DHT22;32646;50.958;6.258;2023-05-07T09:18:41;22.20;96.00
46898;DHT22;32646;50.958;6.258;2023-05-07T09:21:15;22.00;94.10
46898;DHT22;32646;50.958;6.258;2023-05-07T09:23:43;21.40;97.10
46898;DHT22;32646;50.958;6.258;2023-05-07T09:36:58;23.70;94.90
46898;DHT22;32646;50.958;6.258;2023-05-07T09:39:51;23.80;87.40
46898;DHT22;32646;50.958;6.258;2023-05-07T09:42:24;24.30;87.50
46898;DHT22;32646;50.958;6.258;2023-05-07T09:44:52;24.40;84.00
46898;DHT22;32646;50.958;6.258;2023-05-07T09:47:23;24.30;82.30
46898;DHT22;32646;50.958;6.258;2023-05-07T09:49:56;25.00;78.60
46898;DHT22;32646;50.958;6.258;2023-05-07T09:52:23;24.10;83.70
46898;DHT22;32646;50.958;6.258;2023-05-07T10:00:10;24.10;77.80
46898;DHT22;32646;50.958;6.258;2023-05-07T10:02:40;24.30;84.50
46898;DHT22;32646;50.958;6.258;2023-05-07T10:05:08;24.00;83.80
46898;DHT22;32646;50.958;6.258;2023-05-07T10:07:35;24.20;79.10
46898;DHT22;32646;50.958;6.258;2023-05-07T10:10:02;24.20;79.80
46898;DHT22;32646;50.958;6.258;2023-05-07T10:12:30;24.50;79.00
46898;DHT22;32646;50.958;6.258;2023-05-07T10:14:56;24.50;75.50
46898;DHT22;32646;50.958;6.258;2023-05-07T10:17:23;25.20;76.50
46898;DHT22;32646;50.958;6.258;2023-05-07T10:19:50;25.80;72.70
46898;DHT22;32646;50.958;6.258;2023-05-07T10:22:20;26.30;72.30
46898;DHT22;32646;50.958;6.258;2023-05-07T10:24:49;26.50;68.60
46898;DHT22;32646;50.958;6.258;2023-05-07T10:27:19;25.50;70.60
46898;DHT22;32646;50.958;6.258;2023-05-07T10:34:58;25.30;69.30
46898;DHT22;32646;50.958;6.258;2023-05-07T10:37:26;24.30;71.40
46898;DHT22;32646;50.958;6.258;2023-05-07T10:39:53;24.20;71.80
46898;DHT22;32646;50.958;6.258;2023-05-07T10:42:20;23.90;71.10
46898;DHT22;32646;50.958;6.258;2023-05-07T10:44:46;23.50;77.40
46898;DHT22;32646;50.958;6.258;2023-05-07T10:47:14;23.70;77.30
46898;DHT22;32646;50.958;6.258;2023-05-07T10:52:18;23.20;77.20
46898;DHT22;32646;50.958;6.258;2023-05-07T10:54:45;22.80;76.40
46898;DHT22;32646;50.958;6.258;2023-05-07T10:59:57;22.50;77.10
46898;DHT22;32646;50.958;6.258;2023-05-07T11:05:42;21.90;83.80
46898;DHT22;32646;50.958;6.258;2023-05-07T11:08:09;21.50;79.90
46898;DHT22;32646;50.958;6.258;2023-05-07T11:10:52;21.40;84.70
46898;DHT22;32646;50.958;6.258;2023-05-07T11:13:43;21.30;81.90
46898;DHT22;32646;50.958;6.258;2023-05-07T11:16:21;21.50;82.40
46898;DHT22;32646;50.958;6.258;2023-05-07T11:18:53;21.50;88.00
46898;DHT22;32646;50.958;6.258;2023-05-07T11:21:39;21.40;85.10
46898;DHT22;32646;50.958;6.258;2023-05-07T11:24:08;21.40;87.00
46898;DHT22;32646;50.958;6.258;2023-05-07T11:29:21;21.60;80.70
46898;DHT22;32646;50.958;6.258;2023-05-07T11:31:50;21.80;80.40
46898;DHT22;32646;50.958;6.258;2023-05-07T11:34:21;22.30;80.30
46898;DHT22;32646;50.958;6.258;2023-05-07T11:36:48;22.60;75.70
46898;DHT22;32646;50.958;6.258;2023-05-07T11:39:32;23.20;79.40
46898;DHT22;32646;50.958;6.258;2023-05-07T11:41:59;22.80;70.00
46898;DHT22;32646;50.958;6.258;2023-05-07T11:44:40;23.30;76.70
46898;DHT22;32646;50.958;6.258;2023-05-07T11:47:07;23.80;70.90
46898;DHT22;32646;50.958;6.258;2023-05-07T11:49:34;24.10;70.20
46898;DHT22;32646;50.958;6.258;2023-05-07T11:52:01;24.10;71.60
46898;DHT22;32646;50.958;6.258;2023-05-07T11:54:35;24.40;71.30
46898;DHT22;32646;50.958;6.258;2023-05-07T11:57:02;24.50;69.80
46898;DHT22;32646;50.958;6.258;2023-05-07T11:59:29;24.50;72.70
46898;DHT22;32646;50.958;6.258;2023-05-07T12:01:57;24.20;72.90
46898;DHT22;32646;50.958;6.258;2023-05-07T12:04:24;23.90;76.20
46898;DHT22;32646;50.958;6.258;2023-05-07T12:06:55;23.60;76.20
46898;DHT22;32646;50.958;6.258;2023-05-07T12:09:22;23.30;71.60
46898;DHT22;32646;50.958;6.258;2023-05-07T12:11:48;23.10;74.30
46898;DHT22;32646;50.958;6.258;2023-05-07T12:14:15;22.90;78.00
46898;DHT22;32646;50.958;6.258;2023-05-07T12:16:42;22.80;75.90
46898;DHT22;32646;50.958;6.258;2023-05-07T12:19:09;22.60;79.30
46898;DHT22;32646;50.958;6.258;2023-05-07T12:21:36;22.20;80.90
46898;DHT22;32646;50.958;6.258;2023-05-07T12:24:02;22.00;81.10
46898;DHT22;32646;50.958;6.258;2023-05-07T12:26:29;21.80;82.40
46898;DHT22;32646;50.958;6.258;2023-05-07T12:28:57;21.80;80.80
46898;DHT22;32646;50.958;6.258;2023-05-07T12:31:27;21.70;81.90
46898;DHT22;32646;50.958;6.258;2023-05-07T12:33:54;21.70;79.50
46898;DHT22;32646;50.958;6.258;2023-05-07T12:36:20;21.60;80.30
46898;DHT22;32646;50.958;6.258;2023-05-07T12:38:49;21.60;80.50
46898;DHT22;32646;50.958;6.258;2023-05-07T12:41:16;21.40;81.90
46898;DHT22;32646;50.958;6.258;2023-05-07T12:43:46;21.20;83.10
46898;DHT22;32646;50.958;6.258;2023-05-07T12:46:12;21.20;86.60
46898;DHT22;32646;50.958;6.258;2023-05-07T12:48:44;21.10;89.80
46898;DHT22;32646;50.958;6.258;2023-05-07T12:51:10;20.80;86.50
46898;DHT22;32646;50.958;6.258;2023-05-07T12:53:40;20.60;93.60
46898;DHT22;32646;50.958;6.258;2023-05-07T12:56:07;20.20;98.20
46898;DHT22;32646;50.958;6.258;2023-05-07T12:58:35;19.80;99.90
46898;DHT22;32646;50.958;6.258;2023-05-07T13:01:06;19.50;99.90
46898;DHT22;32646;50.958;6.258;2023-05-07T13:03:35;19.10;99.90
46898;DHT22;32646;50.958;6.258;2023-05-07T13:06:07;19.10;99.90
46898;DHT22;32646;50.958;6.258;2023-05-07T13:08:37;19.10;99.90
46898;DHT22;32646;50.958;6.258;2023-05-07T13:11:04;19.10;99.90
46898;DHT22;32646;50.958;6.258;2023-05-07T13:13:32;19.10;99.90
46898;DHT22;32646;50.958;6.258;2023-05-07T13:16:00;19.10;99.90
46898;DHT22;32646;50.958;6.258;2023-05-07T13:18:28;18.80;99.90
46898;DHT22;32646;50.958;6.258;2023-05-07T13:20:56;18.60;99.90
46898;DHT22;32646;50.958;6.258;2023-05-07T13:23:22;18.50;99.90
46898;DHT22;32646;50.958;6.258;2023-05-07T13:25:49;18.60;99.90
46898;DHT22;32646;50.958;6.258;2023-05-07T13:28:16;18.70;99.90
46898;DHT22;32646;50.958;6.258;2023-05-07T13:30:42;18.70;99.90
46898;DHT22;32646;50.958;6.258;2023-05-07T13:33:09;18.60;99.90
46898;DHT22;32646;50.958;6.258;2023-05-07T13:35:36;18.50;99.90
46898;DHT22;32646;50.958;6.258;2023-05-07T13:38:03;18.30;99.90
46898;DHT22;32646;50.958;6.258;2023-05-07T13:40:30;17.70;99.90
46898;DHT22;32646;50.958;6.258;2023-05-07T13:42:57;17.40;99.90
46898;DHT22;32646;50.958;6.258;2023-05-07T13:45:24;17.40;99.90
46898;DHT22;32646;50.958;6.258;2023-05-07T13:47:51;17.30;99.90
46898;DHT22;32646;50.958;6.258;2023-05-07T13:50:18;17.30;99.90
46898;DHT22;32646;50.958;6.258;2023-05-07T13:52:44;17.30;99.90
46898;DHT22;32646;50.958;6.258;2023-05-07T13:55:31;17.10;99.90
46898;DHT22;32646;50.958;6.258;2023-05-07T14:01:44;17.00;99.90
46898;DHT22;32646;50.958;6.258;2023-05-07T14:04:10;17.10;99.90
46898;DHT22;32646;50.958;6.258;2023-05-07T14:06:55;17.10;99.90
46898;DHT22;32646;50.958;6.258;2023-05-07T14:09:24;17.40;99.90
46898;DHT22;32646;50.958;6.258;2023-05-07T14:11:51;17.40;99.90
46898;DHT22;32646;50.958;6.258;2023-05-07T14:14:18;17.50;99.90
46898;DHT22;32646;50.958;6.258;2023-05-07T14:16:45;17.50;99.90
46898;DHT22;32646;50.958;6.258;2023-05-07T14:19:15;17.70;99.90
46898;DHT22;32646;50.958;6.258;2023-05-07T14:21:42;17.70;99.90
46898;DHT22;32646;50.958;6.258;2023-05-07T14:24:08;17.80;99.90
46898;DHT22;32646;50.958;6.258;2023-05-07T14:26:35;17.70;99.90
46898;DHT22;32646;50.958;6.258;2023-05-07T14:29:02;17.80;99.90
46898;DHT22;32646;50.958;6.258;2023-05-07T14:31:28;17.80;99.90
46898;DHT22;32646;50.958;6.258;2023-05-07T14:33:55;18.00;99.90
46898;DHT22;32646;50.958;6.258;2023-05-07T14:36:22;17.90;99.90
46898;DHT22;32646;50.958;6.258;2023-05-07T14:38:48;17.90;99.90
46898;DHT22;32646;50.958;6.258;2023-05-07T14:41:15;17.90;99.90
46898;DHT22;32646;50.958;6.258;2023-05-07T14:43:42;17.90;99.90
46898;DHT22;32646;50.958;6.258;2023-05-07T14:46:08;18.10;99.90
46898;DHT22;32646;50.958;6.258;2023-05-07T14:48:35;18.00;99.90
46898;DHT22;32646;50.958;6.258;2023-05-07T14:51:01;18.60;99.90
46898;DHT22;32646;50.958;6.258;2023-05-07T14:53:28;19.10;99.90
46898;DHT22;32646;50.958;6.258;2023-05-07T14:55:54;19.40;99.90
46898;DHT22;32646;50.958;6.258;2023-05-07T14:58:21;19.40;99.90
46898;DHT22;32646;50.958;6.258;2023-05-07T15:00:48;19.30;99.90
46898;DHT22;32646;50.958;6.258;2023-05-07T15:03:14;19.40;99.90
46898;DHT22;32646;50.958;6.258;2023-05-07T15:05:41;19.70;99.90
46898;DHT22;32646;50.958;6.258;2023-05-07T15:08:07;19.80;99.90
46898;DHT22;32646;50.958;6.258;2023-05-07T15:10:37;19.60;99.90
46898;DHT22;32646;50.958;6.258;2023-05-07T15:13:04;19.50;99.90
46898;DHT22;32646;50.958;6.258;2023-05-07T15:15:31;19.60;99.90
46898;DHT22;32646;50.958;6.258;2023-05-07T15:17:57;19.60;99.90
46898;DHT22;32646;50.958;6.258;2023-05-07T15:20:24;19.70;99.90
46898;DHT22;32646;50.958;6.258;2023-05-07T15:22:50;19.70;99.90
46898;DHT22;32646;50.958;6.258;2023-05-07T15:25:17;19.50;99.90
46898;DHT22;32646;50.958;6.258;2023-05-07T15:27:44;19.50;99.90
46898;DHT22;32646;50.958;6.258;2023-05-07T15:30:11;19.50;99.90
46898;DHT22;32646;50.958;6.258;2023-05-07T15:32:37;19.50;99.90
46898;DHT22;32646;50.958;6.258;2023-05-07T15:35:05;19.40;99.90
46898;DHT22;32646;50.958;6.258;2023-05-07T15:37:32;19.40;99.90
46898;DHT22;32646;50.958;6.258;2023-05-07T15:39:59;19.40;99.90
46898;DHT22;32646;50.958;6.258;2023-05-07T15:42:25;19.30;99.90
46898;DHT22;32646;50.958;6.258;2023-05-07T15:44:52;19.20;99.90
46898;DHT22;32646;50.958;6.258;2023-05-07T15:47:19;19.20;99.90
46898;DHT22;32646;50.958;6.258;2023-05-07T15:49:45;19.10;99.90
46898;DHT22;32646;50.958;6.258;2023-05-07T15:52:12;19.10;99.90
46898;DHT22;32646;50.958;6.258;2023-05-07T15:54:38;19.00;99.90
46898;DHT22;32646;50.958;6.258;2023-05-07T15:57:06;19.00;99.90
46898;DHT22;32646;50.958;6.258;2023-05-07T15:59:33;19.00;99.90
46898;DHT22;32646;50.958;6.258;2023-05-07T16:02:01;19.00;99.90
46898;DHT22;32646;50.958;6.258;2023-05-07T16:04:28;18.90;99.90
46898;DHT22;32646;50.958;6.258;2023-05-07T16:06:55;19.10;99.90